createdAt,value
2023-09-08T00:02:23.164Z,90.18
2023-09-08T00:05:15.767Z,90.13
2023-09-08T00:08:08.914Z,90.09
2023-09-08T00:11:01.915Z,90.06
2023-09-08T00:13:54.730Z,90.04
2023-09-08T00:16:49.727Z,90.15
2023-09-08T00:19:42.955Z,90.35
2023-09-08T00:22:37.413Z,90.54
2023-09-08T00:25:30.270Z,90.64
2023-09-08T00:28:23.024Z,90.59
2023-09-08T00:31:15.651Z,90.57
2023-09-08T00:34:09.529Z,90.64
2023-09-08T00:37:26.056Z,90.73
2023-09-08T00:40:19.087Z,90.77
2023-09-08T00:43:13.548Z,90.84
2023-09-08T00:46:06.526Z,90.86
2023-09-08T00:49:01.885Z,90.86
2023-09-08T00:51:55.156Z,90.90
2023-09-08T00:54:48.939Z,90.94
2023-09-08T00:57:41.764Z,90.91
2023-09-08T01:00:35.049Z,90.90
2023-09-08T01:03:16.555Z,90.95
2023-09-08T01:06:10.283Z,90.90
2023-09-08T01:09:03.857Z,90.87
2023-09-08T01:12:01.912Z,90.91
2023-09-08T01:14:54.693Z,90.89
2023-09-08T01:17:27.649Z,90.84
2023-09-08T01:20:26.077Z,90.78
2023-09-08T01:23:30.669Z,90.77
2023-09-08T01:26:28.139Z,90.77
2023-09-08T01:29:21.852Z,90.79
2023-09-08T01:32:15.903Z,90.76
2023-09-08T01:35:09.932Z,90.67
2023-09-08T01:38:02.620Z,90.58
2023-09-08T01:40:55.302Z,90.70
2023-09-08T01:43:50.207Z,90.70
2023-09-08T01:46:43.053Z,90.84
2023-09-08T01:49:38.139Z,91.31
2023-09-08T01:52:31.105Z,91.33
2023-09-08T01:55:23.729Z,91.42
2023-09-08T01:58:16.535Z,91.45
2023-09-08T02:01:07.401Z,91.47
2023-09-08T02:04:00.247Z,91.29
2023-09-08T02:06:54.301Z,91.25
2023-09-08T02:09:47.360Z,91.14
2023-09-08T02:12:43.656Z,91.06
2023-09-08T02:15:38.907Z,90.99
2023-09-08T02:18:32.173Z,90.98
2023-09-08T02:21:24.976Z,90.94
2023-09-08T02:24:20.048Z,90.76
2023-09-08T02:27:12.757Z,90.74
2023-09-08T02:30:07.759Z,90.92
2023-09-08T02:33:00.537Z,90.94
2023-09-08T02:35:54.251Z,90.91
2023-09-08T02:38:47.032Z,90.92
2023-09-08T02:41:42.539Z,90.95
2023-09-08T02:44:36.052Z,91.00
2023-09-08T02:47:30.004Z,91.00
2023-09-08T02:50:23.324Z,90.98
2023-09-08T02:53:16.090Z,91.00
2023-09-08T02:56:10.550Z,90.98
2023-09-08T02:59:03.238Z,90.99
2023-09-08T03:01:56.037Z,90.99
2023-09-08T03:04:49.604Z,91.01
2023-09-08T03:07:42.341Z,91.01
2023-09-08T03:10:37.583Z,90.98
2023-09-08T03:13:13.532Z,90.98
2023-09-08T03:16:10.625Z,90.95
2023-09-08T03:19:03.560Z,90.93
2023-09-08T03:21:56.322Z,90.92
2023-09-08T03:24:42.706Z,90.91
2023-09-08T03:27:34.033Z,90.97
2023-09-08T03:30:29.850Z,90.99
2023-09-08T03:33:22.750Z,91.04
2023-09-08T03:36:16.634Z,90.95
2023-09-08T03:39:11.007Z,90.91
2023-09-08T03:42:03.994Z,90.95
2023-09-08T03:44:56.745Z,90.94
2023-09-08T03:47:49.494Z,90.95
2023-09-08T03:50:43.369Z,91.00
2023-09-08T03:53:36.923Z,91.03
2023-09-08T03:56:22.812Z,91.26
2023-09-08T03:59:16.180Z,91.37
2023-09-08T04:02:09.012Z,91.46
2023-09-08T04:05:02.293Z,91.60
2023-09-08T04:07:55.332Z,91.57
2023-09-08T04:10:48.471Z,91.54
2023-09-08T04:13:41.152Z,91.73
2023-09-08T04:16:34.828Z,91.84
2023-09-08T04:19:28.044Z,91.85
2023-09-08T04:22:21.584Z,91.96
2023-09-08T04:25:15.548Z,92.10
2023-09-08T04:28:10.001Z,92.15
2023-09-08T04:31:03.411Z,92.20
2023-09-08T04:33:57.584Z,92.22
2023-09-08T04:36:50.220Z,92.21
2023-09-08T04:39:43.242Z,92.24
2023-09-08T04:42:36.239Z,92.25
2023-09-08T04:45:29.351Z,92.24
2023-09-08T04:48:15.442Z,92.25
2023-09-08T04:51:08.809Z,92.22
2023-09-08T04:54:01.440Z,92.16
2023-09-08T04:56:57.031Z,92.01
2023-09-08T04:59:56.983Z,91.92
2023-09-08T05:02:50.175Z,91.80
2023-09-08T05:05:35.825Z,91.68
2023-09-08T05:08:28.573Z,91.51
2023-09-08T05:11:21.461Z,91.23
2023-09-08T05:14:14.610Z,91.08
2023-09-08T05:17:07.757Z,90.89
2023-09-08T05:19:56.309Z,90.55
2023-09-08T05:22:49.047Z,90.20
2023-09-08T05:25:43.980Z,89.82
2023-09-08T05:28:39.404Z,89.40
2023-09-08T05:31:34.209Z,89.13
2023-09-08T05:34:26.932Z,88.97
2023-09-08T05:37:19.699Z,88.64
2023-09-08T05:40:13.498Z,88.34
2023-09-08T05:43:07.827Z,88.00
2023-09-08T05:46:00.689Z,87.78
2023-09-08T05:48:53.555Z,87.66
2023-09-08T05:51:46.507Z,87.41
2023-09-08T05:54:40.110Z,87.16
2023-09-08T05:57:32.831Z,87.15
2023-09-08T06:00:25.614Z,87.12
2023-09-08T06:03:18.401Z,87.03
2023-09-08T06:06:12.542Z,86.95
2023-09-08T06:09:09.099Z,86.99
2023-09-08T06:11:55.196Z,86.89
2023-09-08T06:14:48.395Z,86.65
2023-09-08T06:17:35.560Z,86.33
2023-09-08T06:20:29.263Z,86.12
2023-09-08T06:23:25.838Z,85.48
2023-09-08T06:26:18.176Z,85.36
2023-09-08T06:29:11.180Z,85.04
2023-09-08T06:32:04.040Z,84.82
2023-09-08T06:34:56.786Z,84.27
2023-09-08T06:37:49.588Z,83.72
2023-09-08T06:40:42.674Z,83.40
2023-09-08T06:43:35.253Z,83.51
2023-09-08T06:46:28.226Z,82.97
2023-09-08T06:49:21.375Z,82.91
2023-09-08T06:52:14.482Z,82.38
2023-09-08T06:55:08.139Z,82.17
2023-09-08T06:58:00.867Z,81.75
2023-09-08T07:00:55.786Z,81.67
2023-09-08T07:03:49.149Z,81.63
2023-09-08T07:06:43.076Z,80.92
2023-09-08T07:09:36.846Z,80.28
2023-09-08T07:12:29.669Z,80.08
2023-09-08T07:15:22.262Z,79.90
2023-09-08T07:18:15.333Z,79.51
2023-09-08T07:21:08.370Z,78.64
2023-09-08T07:24:01.792Z,77.69
2023-09-08T07:26:56.431Z,77.15
2023-09-08T07:29:50.795Z,76.95
2023-09-08T07:32:44.032Z,76.85
2023-09-08T07:35:38.507Z,76.46
2023-09-08T07:38:31.433Z,76.11
2023-09-08T07:41:24.822Z,75.11
2023-09-08T07:44:17.752Z,74.97
2023-09-08T07:46:59.631Z,74.55
2023-09-08T07:49:52.412Z,74.74
2023-09-08T07:52:35.328Z,74.13
2023-09-08T07:55:30.067Z,74.08
2023-09-08T07:58:23.954Z,74.17
2023-09-08T08:01:17.308Z,73.72
2023-09-08T08:04:10.604Z,73.73
2023-09-08T08:07:03.514Z,72.35
2023-09-08T08:09:56.578Z,72.21
2023-09-08T08:12:49.463Z,71.99
2023-09-08T08:15:23.638Z,71.83
2023-09-08T08:18:16.808Z,71.49
2023-09-08T08:21:09.480Z,70.80
2023-09-08T08:24:01.303Z,71.88
2023-09-08T08:26:54.292Z,70.49
2023-09-08T08:29:46.909Z,70.36
2023-09-08T08:32:39.432Z,70.09
2023-09-08T08:35:25.736Z,69.27
2023-09-08T08:38:18.500Z,68.45
2023-09-08T08:41:11.275Z,67.79
2023-09-08T08:44:04.446Z,67.58
2023-09-08T08:46:58.160Z,67.68
2023-09-08T08:49:50.833Z,66.71
2023-09-08T08:52:43.130Z,66.40
2023-09-08T08:55:36.682Z,66.49
2023-09-08T08:58:30.233Z,67.04
2023-09-08T09:01:23.439Z,67.19
2023-09-08T09:04:16.865Z,67.17
2023-09-08T09:07:10.313Z,66.54
2023-09-08T09:10:01.817Z,65.34
2023-09-08T09:12:54.844Z,64.86
2023-09-08T09:15:48.254Z,64.24
2023-09-08T09:18:59.878Z,64.24
2023-09-08T09:21:52.608Z,63.58
2023-09-08T09:24:46.497Z,63.12
2023-09-08T09:27:38.991Z,63.36
2023-09-08T09:30:25.883Z,63.04
2023-09-08T09:33:09.356Z,62.61
2023-09-08T09:36:02.174Z,61.99
2023-09-08T09:39:00.157Z,62.18
2023-09-08T09:41:55.732Z,62.18
2023-09-08T09:44:49.139Z,61.30
2023-09-08T09:47:40.887Z,60.78
2023-09-08T09:50:35.534Z,58.85
2023-09-08T09:53:27.682Z,58.01
2023-09-08T09:56:22.849Z,57.78
2023-09-08T09:59:16.898Z,59.29
2023-09-08T10:02:14.835Z,58.71
2023-09-08T10:05:16.547Z,57.47
2023-09-08T10:08:11.668Z,58.53
2023-09-08T10:11:02.367Z,58.76
2023-09-08T10:13:49.194Z,57.13
2023-09-08T10:16:45.601Z,58.05
2023-09-08T10:19:44.245Z,57.93
2023-09-08T11:20:32.614Z,53.16
2023-09-08T11:23:06.407Z,51.23
2023-09-08T11:25:39.355Z,50.68
2023-09-08T11:28:24.135Z,50.99
2023-09-08T11:30:58.549Z,50.59
2023-09-08T11:33:42.598Z,50.92
2023-09-08T11:36:20.035Z,50.72
2023-09-08T11:38:52.799Z,50.99
2023-09-08T11:41:30.426Z,52.15
2023-09-08T11:44:08.728Z,52.24
2023-09-08T11:46:42.879Z,52.15
2023-09-08T11:49:24.159Z,51.62
2023-09-08T11:51:58.470Z,50.90
2023-09-08T11:54:51.962Z,51.69
2023-09-08T11:57:38.307Z,51.33
2023-09-08T12:00:17.181Z,49.97
2023-09-08T12:02:52.687Z,50.39
2023-09-08T12:05:52.863Z,50.20
2023-09-08T12:08:30.509Z,51.12
2023-09-08T12:11:03.260Z,50.55
2023-09-08T12:13:38.558Z,49.73
2023-09-08T12:16:23.537Z,50.02
2023-09-08T12:18:56.369Z,49.35
2023-09-08T12:21:29.040Z,48.80
2023-09-08T12:24:04.777Z,49.09
2023-09-08T12:26:40.039Z,49.47
2023-09-08T12:29:17.756Z,48.28
2023-09-08T12:31:50.157Z,48.62
2023-09-08T12:34:25.302Z,49.18
2023-09-08T12:37:00.688Z,49.35
2023-09-08T12:39:33.207Z,50.44
2023-09-08T12:42:08.764Z,50.16
2023-09-08T12:44:42.893Z,49.53
2023-09-08T12:47:15.802Z,49.85
2023-09-08T12:49:51.537Z,48.58
2023-09-08T12:52:27.259Z,48.58
2023-09-08T12:55:00.817Z,48.23
2023-09-08T12:57:33.318Z,47.78
2023-09-08T13:00:08.604Z,48.09
2023-09-08T13:02:42.779Z,47.90
2023-09-08T13:05:15.573Z,48.34
2023-09-08T13:07:48.365Z,47.34
2023-09-08T13:10:21.385Z,47.33
2023-09-08T13:12:54.307Z,47.27
2023-09-08T13:15:37.586Z,48.06
2023-09-08T13:18:10.424Z,48.35
2023-09-08T13:20:43.022Z,48.70
2023-09-08T13:23:16.006Z,48.13
2023-09-08T13:25:53.045Z,46.96
2023-09-08T13:28:28.097Z,46.45
2023-09-08T13:31:00.985Z,45.68
2023-09-08T13:33:37.384Z,45.45
2023-09-08T13:36:12.218Z,45.57
2023-09-08T13:38:46.647Z,45.97
2023-09-08T13:41:19.592Z,45.79
2023-09-08T13:43:52.261Z,45.46
2023-09-08T13:46:27.980Z,45.53
2023-09-08T13:49:05.027Z,45.95
2023-09-08T13:51:42.552Z,46.23
2023-09-08T13:54:18.199Z,46.25
2023-09-08T13:57:03.357Z,46.13
2023-09-08T13:59:42.456Z,46.01
2023-09-08T14:02:39.784Z,45.48
2023-09-08T14:05:11.215Z,45.72
2023-09-08T14:07:46.746Z,45.74
2023-09-08T14:13:00.085Z,45.26
2023-09-08T14:15:34.599Z,45.59
2023-09-08T14:18:07.859Z,44.77
2023-09-08T14:20:40.440Z,44.26
2023-09-08T14:23:13.063Z,44.86
2023-09-08T14:25:48.149Z,44.99
2023-09-08T14:28:35.051Z,45.04
2023-09-08T14:31:08.451Z,44.87
2023-09-08T14:33:41.394Z,43.95
2023-09-08T14:36:18.830Z,44.04
2023-09-08T14:38:49.788Z,44.49
2023-09-08T14:41:25.276Z,45.49
2023-09-08T14:44:00.744Z,46.41
2023-09-08T14:46:36.276Z,46.36
2023-09-08T14:49:20.169Z,46.15
2023-09-08T14:51:52.866Z,46.01
2023-09-08T14:54:27.563Z,45.63
2023-09-08T14:57:20.321Z,46.04
2023-09-08T14:59:58.315Z,45.73
2023-09-08T15:02:34.489Z,46.31
2023-09-08T15:05:07.884Z,46.56
2023-09-08T15:07:43.246Z,46.93
2023-09-08T15:10:15.859Z,46.77
2023-09-08T15:12:51.406Z,46.75
2023-09-08T15:15:26.949Z,47.16
2023-09-08T15:18:23.796Z,46.55
2023-09-08T15:20:59.160Z,46.98
2023-09-08T15:23:35.376Z,46.74
2023-09-08T15:26:22.395Z,46.66
2023-09-08T15:29:16.433Z,46.40
2023-09-08T15:31:59.720Z,46.66
2023-09-08T15:34:44.510Z,47.23
2023-09-08T15:37:30.399Z,47.92
2023-09-08T15:40:15.640Z,47.17
2023-09-08T15:42:50.263Z,46.99
2023-09-08T15:45:34.491Z,47.08
2023-09-08T15:48:09.962Z,47.51
2023-09-08T15:50:42.617Z,47.55
2023-09-08T15:53:18.225Z,48.35
2023-09-08T15:55:50.957Z,48.34
2023-09-08T15:58:27.550Z,49.24
2023-09-08T16:01:10.486Z,49.68
2023-09-08T16:03:46.543Z,51.27
2023-09-08T16:06:25.699Z,51.95
2023-09-08T16:08:58.137Z,52.23
2023-09-08T16:11:41.144Z,52.68
2023-09-08T16:14:16.262Z,52.89
2023-09-08T16:16:48.903Z,54.02
2023-09-08T16:19:24.784Z,54.29
2023-09-08T16:22:09.092Z,54.61
2023-09-08T16:24:51.890Z,55.00
2023-09-08T16:27:35.023Z,55.25
2023-09-08T16:30:18.181Z,55.66
2023-09-08T16:33:11.118Z,56.11
2023-09-08T16:36:06.262Z,56.70
2023-09-08T16:38:41.295Z,57.44
2023-09-08T16:41:17.182Z,57.72
2023-09-08T16:43:55.207Z,58.38
2023-09-08T16:46:31.048Z,58.81
2023-09-08T16:49:03.827Z,59.18
2023-09-08T16:51:36.570Z,60.11
2023-09-08T16:54:13.500Z,60.90
2023-09-08T16:56:57.398Z,61.30
2023-09-08T16:59:30.562Z,62.08
2023-09-08T17:02:13.862Z,63.01
2023-09-08T17:04:47.414Z,63.40
2023-09-08T17:07:20.255Z,64.00
2023-09-08T17:09:56.227Z,64.76
2023-09-08T17:12:29.912Z,65.73
2023-09-08T17:15:06.671Z,66.17
2023-09-08T17:17:39.573Z,66.75
2023-09-08T17:20:26.047Z,67.25
2023-09-08T17:23:02.489Z,67.85
2023-09-08T17:25:34.982Z,68.56
2023-09-08T17:28:07.938Z,69.09
2023-09-08T17:30:41.906Z,69.74
2023-09-08T17:33:16.912Z,70.13
2023-09-08T17:35:52.092Z,70.45
2023-09-08T17:38:27.439Z,70.71
2023-09-08T17:41:10.245Z,71.06
2023-09-08T17:43:46.729Z,71.60
2023-09-08T17:46:19.525Z,72.20
2023-09-08T17:48:55.496Z,72.56
2023-09-08T17:51:27.778Z,72.90
2023-09-08T17:54:00.732Z,73.27
2023-09-08T17:56:33.304Z,73.63
2023-09-08T17:59:06.338Z,74.01
2023-09-08T18:01:40.247Z,74.47
2023-09-08T18:04:23.032Z,74.82
2023-09-08T18:06:57.931Z,75.16
2023-09-08T18:09:41.045Z,75.57
2023-09-08T18:12:34.514Z,76.06
2023-09-08T18:15:13.344Z,76.56
2023-09-08T18:17:48.637Z,76.71
2023-09-08T18:20:21.933Z,76.90
2023-09-08T18:22:55.875Z,77.32
2023-09-08T18:25:28.749Z,77.64
2023-09-08T18:28:01.585Z,77.99
2023-09-08T18:30:34.468Z,78.14
2023-09-08T18:33:07.602Z,78.34
2023-09-08T18:35:41.431Z,78.69
2023-09-08T18:38:15.119Z,78.93
2023-09-08T18:40:50.431Z,79.21
2023-09-08T18:43:22.991Z,79.43
2023-09-08T18:45:55.705Z,79.68
2023-09-08T18:48:31.720Z,79.83
2023-09-08T18:51:04.718Z,80.02
2023-09-08T18:53:39.391Z,80.19
2023-09-08T18:56:12.521Z,80.61
2023-09-08T18:58:48.484Z,80.72
2023-09-08T19:01:21.255Z,80.84
2023-09-08T19:03:53.978Z,80.97
2023-09-08T19:06:26.513Z,81.17
2023-09-08T19:08:59.634Z,81.32
2023-09-08T19:11:33.960Z,81.46
2023-09-08T19:14:08.461Z,81.67
2023-09-08T19:16:41.090Z,81.82
2023-09-08T19:19:19.223Z,82.05
2023-09-08T19:21:51.760Z,82.15
2023-09-08T19:24:25.725Z,82.27
2023-09-08T19:26:58.504Z,82.42
2023-09-08T19:29:32.831Z,82.51
2023-09-08T19:32:06.846Z,82.74
2023-09-08T19:34:39.654Z,82.94
2023-09-08T19:37:12.529Z,83.11
2023-09-08T19:39:46.389Z,83.26
2023-09-08T19:42:19.148Z,83.47
2023-09-08T19:44:51.925Z,83.65
2023-09-08T19:47:24.672Z,83.87
2023-09-08T19:49:57.340Z,84.00
2023-09-08T19:52:30.106Z,84.13
2023-09-08T19:55:03.013Z,84.24
2023-09-08T19:57:35.774Z,84.35
2023-09-08T20:00:10.470Z,84.43
2023-09-08T20:02:48.332Z,84.54
2023-09-08T20:05:21.132Z,84.62
2023-09-08T20:07:54.766Z,84.76
2023-09-08T20:10:35.155Z,84.80
2023-09-08T20:13:09.453Z,85.11
2023-09-08T20:15:42.027Z,85.19
2023-09-08T20:18:14.991Z,85.30
2023-09-08T20:20:47.817Z,85.38
2023-09-08T20:23:20.622Z,85.54
2023-09-08T20:25:54.919Z,85.56
2023-09-08T20:28:30.584Z,85.50
2023-09-08T20:33:39.669Z,85.49
2023-09-08T20:36:12.854Z,85.57
2023-09-08T20:38:45.628Z,85.72
2023-09-08T20:41:18.164Z,86.05
2023-09-08T20:43:51.005Z,86.38
2023-09-08T20:46:23.748Z,86.47
2023-09-08T20:48:56.242Z,86.47
2023-09-08T20:51:28.742Z,86.55
2023-09-08T20:54:03.442Z,86.60
2023-09-08T20:56:40.038Z,86.69
2023-09-08T20:59:12.828Z,86.78
2023-09-08T21:01:45.369Z,86.84
2023-09-08T21:04:21.099Z,86.96
2023-09-08T21:06:55.222Z,86.99
2023-09-08T21:09:28.119Z,87.13
2023-09-08T21:12:00.717Z,87.25
2023-09-08T21:14:33.415Z,87.13
2023-09-08T21:17:06.445Z,87.18
2023-09-08T21:19:38.948Z,87.19
2023-09-08T21:22:11.646Z,87.31
2023-09-08T21:24:47.940Z,87.38
2023-09-08T21:27:23.003Z,87.49
2023-09-08T21:30:06.508Z,87.48
2023-09-08T21:32:40.026Z,87.70
2023-09-08T21:35:13.425Z,87.74
2023-09-08T21:37:47.885Z,87.68
2023-09-08T21:40:43.519Z,87.61
2023-09-08T21:43:16.162Z,87.82
2023-09-08T21:46:07.662Z,87.84
2023-09-08T21:48:50.753Z,87.86
2023-09-08T21:51:47.399Z,87.96
2023-09-08T21:54:40.352Z,87.93
2023-09-08T21:57:33.417Z,88.03
2023-09-08T22:00:22.479Z,88.23
2023-09-08T22:03:01.074Z,88.76
2023-09-08T22:05:34.592Z,88.97
2023-09-08T22:08:11.155Z,89.08
2023-09-08T22:11:08.295Z,89.04
2023-09-08T22:13:45.090Z,89.03
2023-09-08T22:16:21.136Z,89.05
2023-09-08T22:19:15.306Z,89.04
2023-09-08T22:22:09.041Z,89.02
2023-09-08T22:24:45.644Z,89.09
2023-09-08T22:27:23.957Z,89.20
2023-09-08T22:30:17.598Z,89.21
2023-09-08T22:33:11.870Z,89.30
2023-09-08T22:35:55.436Z,89.67
2023-09-08T22:38:32.051Z,89.88
2023-09-08T22:41:08.490Z,89.83
2023-09-08T22:43:44.397Z,89.89
2023-09-08T22:46:37.477Z,89.97
2023-09-08T22:49:14.051Z,90.07
2023-09-08T22:52:07.987Z,90.13
2023-09-08T22:55:13.008Z,90.16
2023-09-08T22:58:16.061Z,90.12
2023-09-08T23:00:49.019Z,90.19
2023-09-08T23:03:21.971Z,90.15
2023-09-08T23:06:05.819Z,90.17
2023-09-08T23:08:49.588Z,90.25
2023-09-08T23:11:31.786Z,90.22
2023-09-08T23:14:27.557Z,90.24
2023-09-08T23:17:11.137Z,90.25
2023-09-08T23:19:43.474Z,90.30
2023-09-08T23:22:19.544Z,90.28
2023-09-08T23:24:52.412Z,90.25
2023-09-08T23:27:28.261Z,90.25
2023-09-08T23:30:05.080Z,90.31
2023-09-08T23:32:58.153Z,90.20
2023-09-08T23:35:31.627Z,90.15
2023-09-08T23:38:06.962Z,90.08
2023-09-08T23:40:41.076Z,90.09
2023-09-08T23:43:24.999Z,90.06
2023-09-08T23:46:01.078Z,90.11
2023-09-08T23:48:44.814Z,90.11
2023-09-08T23:51:19.603Z,90.18
2023-09-08T23:54:12.500Z,90.34
2023-09-08T23:56:47.263Z,90.47
2023-09-08T23:59:20.670Z,90.47
